sensor_id;sensor_type;location;lat;lon;timestamp;temperature;humidity
674;DHT22;319;48.764;9.174;2023-04-23T00:00:47;16.90;92.90
674;DHT22;319;48.764;9.174;2023-04-23T00:03:17;16.80;92.90
674;DHT22;319;48.764;9.174;2023-04-23T00:05:44;16.80;93.10
674;DHT22;319;48.764;9.174;2023-04-23T00:08:17;16.80;93.20
674;DHT22;319;48.764;9.174;2023-04-23T00:10:44;16.70;93.20
674;DHT22;319;48.764;9.174;2023-04-23T00:13:12;16.70;93.20
674;DHT22;319;48.764;9.174;2023-04-23T00:15:41;16.80;93.20
674;DHT22;319;48.764;9.174;2023-04-23T00:18:08;16.70;93.30
674;DHT22;319;48.764;9.174;2023-04-23T00:20:35;16.70;93.40
674;DHT22;319;48.764;9.174;2023-04-23T00:23:01;16.60;93.50
674;DHT22;319;48.764;9.174;2023-04-23T00:25:28;16.60;93.60
674;DHT22;319;48.764;9.174;2023-04-23T00:27:55;16.60;93.70
674;DHT22;319;48.764;9.174;2023-04-23T00:30:22;16.60;94.10
674;DHT22;319;48.764;9.174;2023-04-23T00:32:51;16.60;94.60
674;DHT22;319;48.764;9.174;2023-04-23T00:35:18;16.50;94.70
674;DHT22;319;48.764;9.174;2023-04-23T00:37:45;16.50;95.30
674;DHT22;319;48.764;9.174;2023-04-23T00:40:12;16.40;95.50
674;DHT22;319;48.764;9.174;2023-04-23T00:42:39;16.40;95.90
674;DHT22;319;48.764;9.174;2023-04-23T00:45:07;16.40;95.60
674;DHT22;319;48.764;9.174;2023-04-23T00:47:35;16.40;95.70
674;DHT22;319;48.764;9.174;2023-04-23T00:50:04;16.30;96.10
674;DHT22;319;48.764;9.174;2023-04-23T00:52:31;16.30;96.40
674;DHT22;319;48.764;9.174;2023-04-23T00:54:59;16.20;96.60
674;DHT22;319;48.764;9.174;2023-04-23T00:57:26;16.20;97.10
674;DHT22;319;48.764;9.174;2023-04-23T00:59:53;16.10;97.20
674;DHT22;319;48.764;9.174;2023-04-23T01:02:21;16.10;97.40
674;DHT22;319;48.764;9.174;2023-04-23T01:04:49;16.10;97.60
674;DHT22;319;48.764;9.174;2023-04-23T01:07:18;16.00;98.00
674;DHT22;319;48.764;9.174;2023-04-23T01:09:45;16.00;98.20
674;DHT22;319;48.764;9.174;2023-04-23T01:12:12;16.00;98.40
674;DHT22;319;48.764;9.174;2023-04-23T01:14:41;16.00;98.10
674;DHT22;319;48.764;9.174;2023-04-23T01:17:08;16.00;98.00
674;DHT22;319;48.764;9.174;2023-04-23T01:19:36;16.00;98.10
674;DHT22;319;48.764;9.174;2023-04-23T01:22:08;16.10;98.00
674;DHT22;319;48.764;9.174;2023-04-23T01:24:35;16.10;98.10
674;DHT22;319;48.764;9.174;2023-04-23T01:27:02;16.10;98.00
674;DHT22;319;48.764;9.174;2023-04-23T01:29:31;16.10;97.90
674;DHT22;319;48.764;9.174;2023-04-23T01:31:59;16.20;97.80
674;DHT22;319;48.764;9.174;2023-04-23T01:34:26;16.20;97.70
674;DHT22;319;48.764;9.174;2023-04-23T01:36:53;16.30;97.80
674;DHT22;319;48.764;9.174;2023-04-23T01:39:21;16.30;98.00
674;DHT22;319;48.764;9.174;2023-04-23T01:41:48;16.20;98.10
674;DHT22;319;48.764;9.174;2023-04-23T01:44:16;16.20;98.80
674;DHT22;319;48.764;9.174;2023-04-23T01:46:42;16.10;98.40
674;DHT22;319;48.764;9.174;2023-04-23T01:49:10;16.10;98.80
674;DHT22;319;48.764;9.174;2023-04-23T01:51:37;16.10;98.80
674;DHT22;319;48.764;9.174;2023-04-23T01:54:04;16.20;98.90
674;DHT22;319;48.764;9.174;2023-04-23T01:56:32;16.20;98.60
674;DHT22;319;48.764;9.174;2023-04-23T01:59:00;16.10;98.50
674;DHT22;319;48.764;9.174;2023-04-23T02:01:40;16.10;98.80
674;DHT22;319;48.764;9.174;2023-04-23T02:04:07;16.10;98.80
674;DHT22;319;48.764;9.174;2023-04-23T02:06:35;16.10;98.90
674;DHT22;319;48.764;9.174;2023-04-23T02:09:02;16.00;98.80
674;DHT22;319;48.764;9.174;2023-04-23T02:11:29;16.00;98.90
674;DHT22;319;48.764;9.174;2023-04-23T02:13:57;16.00;99.10
674;DHT22;319;48.764;9.174;2023-04-23T02:16:24;15.90;99.30
674;DHT22;319;48.764;9.174;2023-04-23T02:18:52;15.90;99.30
674;DHT22;319;48.764;9.174;2023-04-23T02:21:19;15.90;99.70
674;DHT22;319;48.764;9.174;2023-04-23T02:23:46;15.90;99.50
674;DHT22;319;48.764;9.174;2023-04-23T02:26:16;15.90;99.90
674;DHT22;319;48.764;9.174;2023-04-23T02:28:43;15.80;99.90
674;DHT22;319;48.764;9.174;2023-04-23T02:31:12;15.80;99.90
674;DHT22;319;48.764;9.174;2023-04-23T02:33:39;15.70;99.90
674;DHT22;319;48.764;9.174;2023-04-23T02:36:07;15.70;99.90
674;DHT22;319;48.764;9.174;2023-04-23T02:38:35;15.70;99.90
674;DHT22;319;48.764;9.174;2023-04-23T02:41:02;15.60;99.90
674;DHT22;319;48.764;9.174;2023-04-23T02:43:29;15.50;99.90
674;DHT22;319;48.764;9.174;2023-04-23T02:45:55;15.40;99.90
674;DHT22;319;48.764;9.174;2023-04-23T02:48:24;15.30;99.90
674;DHT22;319;48.764;9.174;2023-04-23T02:50:51;15.30;99.90
674;DHT22;319;48.764;9.174;2023-04-23T02:53:18;15.20;99.90
674;DHT22;319;48.764;9.174;2023-04-23T02:55:45;15.10;99.90
674;DHT22;319;48.764;9.174;2023-04-23T02:58:12;15.10;99.90
674;DHT22;319;48.764;9.174;2023-04-23T03:00:39;15.00;99.90
674;DHT22;319;48.764;9.174;2023-04-23T03:03:06;15.00;99.90
674;DHT22;319;48.764;9.174;2023-04-23T03:05:34;14.90;99.90
674;DHT22;319;48.764;9.174;2023-04-23T03:08:01;14.90;99.90
674;DHT22;319;48.764;9.174;2023-04-23T03:10:28;14.90;99.90
674;DHT22;319;48.764;9.174;2023-04-23T03:12:55;14.80;99.90
674;DHT22;319;48.764;9.174;2023-04-23T03:15:22;14.70;99.90
674;DHT22;319;48.764;9.174;2023-04-23T03:17:49;14.60;99.90
674;DHT22;319;48.764;9.174;2023-04-23T03:20:18;14.50;99.90
674;DHT22;319;48.764;9.174;2023-04-23T03:22:47;14.40;99.90
674;DHT22;319;48.764;9.174;2023-04-23T03:25:14;14.40;99.90
674;DHT22;319;48.764;9.174;2023-04-23T03:27:41;14.30;99.90
674;DHT22;319;48.764;9.174;2023-04-23T03:30:09;14.20;99.90
674;DHT22;319;48.764;9.174;2023-04-23T03:32:37;14.10;99.90
674;DHT22;319;48.764;9.174;2023-04-23T03:35:08;14.10;99.90
674;DHT22;319;48.764;9.174;2023-04-23T03:37:35;14.10;99.90
674;DHT22;319;48.764;9.174;2023-04-23T03:40:04;14.10;99.90
674;DHT22;319;48.764;9.174;2023-04-23T03:42:32;14.10;99.90
674;DHT22;319;48.764;9.174;2023-04-23T03:44:59;14.10;99.90
674;DHT22;319;48.764;9.174;2023-04-23T03:47:26;14.20;99.90
674;DHT22;319;48.764;9.174;2023-04-23T03:49:54;14.20;99.90
674;DHT22;319;48.764;9.174;2023-04-23T03:52:20;14.30;99.90
674;DHT22;319;48.764;9.174;2023-04-23T03:54:47;14.30;99.90
674;DHT22;319;48.764;9.174;2023-04-23T03:57:15;14.20;99.90
674;DHT22;319;48.764;9.174;2023-04-23T03:59:42;14.30;99.90
674;DHT22;319;48.764;9.174;2023-04-23T04:02:09;14.40;99.90
674;DHT22;319;48.764;9.174;2023-04-23T04:04:36;14.40;99.90
674;DHT22;319;48.764;9.174;2023-04-23T04:07:03;14.50;99.90
674;DHT22;319;48.764;9.174;2023-04-23T04:09:32;14.50;99.90
674;DHT22;319;48.764;9.174;2023-04-23T04:11:59;14.50;99.90
674;DHT22;319;48.764;9.174;2023-04-23T04:14:27;14.50;99.90
674;DHT22;319;48.764;9.174;2023-04-23T04:16:55;14.50;99.90
674;DHT22;319;48.764;9.174;2023-04-23T04:19:23;14.50;99.90
674;DHT22;319;48.764;9.174;2023-04-23T04:21:49;14.50;99.90
674;DHT22;319;48.764;9.174;2023-04-23T04:24:16;14.50;99.90
674;DHT22;319;48.764;9.174;2023-04-23T04:26:43;14.40;99.90
674;DHT22;319;48.764;9.174;2023-04-23T04:29:10;14.40;99.90
674;DHT22;319;48.764;9.174;2023-04-23T04:31:39;14.40;99.90
674;DHT22;319;48.764;9.174;2023-04-23T04:34:06;14.30;99.90
674;DHT22;319;48.764;9.174;2023-04-23T04:36:35;14.30;99.90
674;DHT22;319;48.764;9.174;2023-04-23T04:39:01;14.30;99.90
674;DHT22;319;48.764;9.174;2023-04-23T04:41:29;14.30;99.90
674;DHT22;319;48.764;9.174;2023-04-23T04:43:56;14.20;99.90
674;DHT22;319;48.764;9.174;2023-04-23T04:46:23;14.20;99.90
674;DHT22;319;48.764;9.174;2023-04-23T04:48:54;14.20;99.90
674;DHT22;319;48.764;9.174;2023-04-23T04:51:21;14.20;99.90
674;DHT22;319;48.764;9.174;2023-04-23T04:53:48;14.10;99.90
674;DHT22;319;48.764;9.174;2023-04-23T04:56:15;14.10;99.90
674;DHT22;319;48.764;9.174;2023-04-23T04:58:42;14.20;99.90
674;DHT22;319;48.764;9.174;2023-04-23T05:01:09;14.20;99.90
674;DHT22;319;48.764;9.174;2023-04-23T05:03:38;14.30;99.90
674;DHT22;319;48.764;9.174;2023-04-23T05:06:06;14.30;99.90
674;DHT22;319;48.764;9.174;2023-04-23T05:08:33;14.40;99.90
674;DHT22;319;48.764;9.174;2023-04-23T05:11:00;14.40;99.90
674;DHT22;319;48.764;9.174;2023-04-23T05:13:31;14.50;99.90
674;DHT22;319;48.764;9.174;2023-04-23T05:16:01;14.70;99.90
674;DHT22;319;48.764;9.174;2023-04-23T05:18:27;14.80;99.90
674;DHT22;319;48.764;9.174;2023-04-23T05:20:55;15.00;99.90
674;DHT22;319;48.764;9.174;2023-04-23T05:23:23;15.10;99.90
674;DHT22;319;48.764;9.174;2023-04-23T05:25:50;15.30;99.90
674;DHT22;319;48.764;9.174;2023-04-23T05:28:20;15.50;99.90
674;DHT22;319;48.764;9.174;2023-04-23T05:30:48;15.70;99.90
674;DHT22;319;48.764;9.174;2023-04-23T05:33:15;15.70;99.90
674;DHT22;319;48.764;9.174;2023-04-23T05:35:42;15.90;99.90
674;DHT22;319;48.764;9.174;2023-04-23T05:38:09;16.00;99.90
674;DHT22;319;48.764;9.174;2023-04-23T05:40:37;16.10;99.90
674;DHT22;319;48.764;9.174;2023-04-23T05:43:04;16.10;99.90
674;DHT22;319;48.764;9.174;2023-04-23T05:45:31;16.10;99.90
674;DHT22;319;48.764;9.174;2023-04-23T05:47:58;16.20;99.90
674;DHT22;319;48.764;9.174;2023-04-23T05:50:26;16.10;99.90
674;DHT22;319;48.764;9.174;2023-04-23T05:52:53;16.10;99.90
674;DHT22;319;48.764;9.174;2023-04-23T05:55:20;16.10;99.90
674;DHT22;319;48.764;9.174;2023-04-23T05:57:49;16.20;99.90
674;DHT22;319;48.764;9.174;2023-04-23T06:00:16;16.30;99.90
674;DHT22;319;48.764;9.174;2023-04-23T06:02:43;16.40;99.90
674;DHT22;319;48.764;9.174;2023-04-23T06:05:10;16.40;99.90
674;DHT22;319;48.764;9.174;2023-04-23T06:07:37;16.30;99.90
674;DHT22;319;48.764;9.174;2023-04-23T06:10:06;16.30;99.90
674;DHT22;319;48.764;9.174;2023-04-23T06:12:33;16.40;99.90
674;DHT22;319;48.764;9.174;2023-04-23T06:15:06;16.50;99.90
674;DHT22;319;48.764;9.174;2023-04-23T06:17:33;16.60;99.90
674;DHT22;319;48.764;9.174;2023-04-23T06:20:00;16.50;99.90
674;DHT22;319;48.764;9.174;2023-04-23T06:22:27;16.40;99.90
674;DHT22;319;48.764;9.174;2023-04-23T06:24:56;16.40;99.90
674;DHT22;319;48.764;9.174;2023-04-23T06:27:23;16.30;99.90
674;DHT22;319;48.764;9.174;2023-04-23T06:29:51;16.20;99.90
674;DHT22;319;48.764;9.174;2023-04-23T06:32:20;16.20;99.90
674;DHT22;319;48.764;9.174;2023-04-23T06:34:47;16.30;99.90
674;DHT22;319;48.764;9.174;2023-04-23T06:37:14;16.40;99.90
674;DHT22;319;48.764;9.174;2023-04-23T06:39:41;16.70;99.90
674;DHT22;319;48.764;9.174;2023-04-23T06:42:08;17.20;99.90
674;DHT22;319;48.764;9.174;2023-04-23T06:44:35;17.60;99.10
674;DHT22;319;48.764;9.174;2023-04-23T06:47:02;18.00;98.30
674;DHT22;319;48.764;9.174;2023-04-23T06:49:30;18.80;97.50
674;DHT22;319;48.764;9.174;2023-04-23T06:51:57;20.00;95.10
674;DHT22;319;48.764;9.174;2023-04-23T06:54:24;21.30;93.40
674;DHT22;319;48.764;9.174;2023-04-23T06:56:51;22.50;90.40
674;DHT22;319;48.764;9.174;2023-04-23T06:59:18;23.70;85.70
674;DHT22;319;48.764;9.174;2023-04-23T07:01:45;24.30;81.20
674;DHT22;319;48.764;9.174;2023-04-23T07:04:12;24.80;80.70
674;DHT22;319;48.764;9.174;2023-04-23T07:06:40;25.50;76.70
674;DHT22;319;48.764;9.174;2023-04-23T07:09:07;25.90;74.00
674;DHT22;319;48.764;9.174;2023-04-23T07:11:34;26.30;71.70
674;DHT22;319;48.764;9.174;2023-04-23T07:14:01;26.90;69.80
674;DHT22;319;48.764;9.174;2023-04-23T07:16:29;26.30;68.30
674;DHT22;319;48.764;9.174;2023-04-23T07:18:58;26.30;67.90
674;DHT22;319;48.764;9.174;2023-04-23T07:21:27;26.10;68.10
674;DHT22;319;48.764;9.174;2023-04-23T07:23:56;26.30;68.20
674;DHT22;319;48.764;9.174;2023-04-23T07:26:24;26.50;66.40
674;DHT22;319;48.764;9.174;2023-04-23T07:28:51;26.60;65.70
674;DHT22;319;48.764;9.174;2023-04-23T07:31:18;26.60;64.90
674;DHT22;319;48.764;9.174;2023-04-23T07:33:45;25.90;65.20
674;DHT22;319;48.764;9.174;2023-04-23T07:36:12;25.50;68.00
674;DHT22;319;48.764;9.174;2023-04-23T07:38:39;25.60;66.70
674;DHT22;319;48.764;9.174;2023-04-23T07:41:07;25.10;65.70
674;DHT22;319;48.764;9.174;2023-04-23T07:43:34;25.00;67.30
674;DHT22;319;48.764;9.174;2023-04-23T07:46:02;24.80;67.40
674;DHT22;319;48.764;9.174;2023-04-23T07:48:29;25.00;68.10
674;DHT22;319;48.764;9.174;2023-04-23T07:50:56;25.60;65.40
674;DHT22;319;48.764;9.174;2023-04-23T07:53:23;25.80;64.70
674;DHT22;319;48.764;9.174;2023-04-23T07:55:53;25.70;63.60
674;DHT22;319;48.764;9.174;2023-04-23T07:58:21;25.50;63.50
674;DHT22;319;48.764;9.174;2023-04-23T08:00:48;25.50;62.80
674;DHT22;319;48.764;9.174;2023-04-23T08:03:16;25.80;63.70
674;DHT22;319;48.764;9.174;2023-04-23T08:05:43;26.00;61.60
674;DHT22;319;48.764;9.174;2023-04-23T08:08:12;26.50;62.10
674;DHT22;319;48.764;9.174;2023-04-23T08:10:39;27.00;59.70
674;DHT22;319;48.764;9.174;2023-04-23T08:13:07;27.20;58.20
674;DHT22;319;48.764;9.174;2023-04-23T08:15:35;27.20;58.50
674;DHT22;319;48.764;9.174;2023-04-23T08:18:05;26.90;57.50
674;DHT22;319;48.764;9.174;2023-04-23T08:20:37;26.30;58.10
674;DHT22;319;48.764;9.174;2023-04-23T08:23:06;25.50;59.50
674;DHT22;319;48.764;9.174;2023-04-23T08:25:36;24.70;61.80
674;DHT22;319;48.764;9.174;2023-04-23T08:28:03;24.40;63.70
674;DHT22;319;48.764;9.174;2023-04-23T08:30:30;23.90;63.20
674;DHT22;319;48.764;9.174;2023-04-23T08:33:02;23.60;65.10
674;DHT22;319;48.764;9.174;2023-04-23T08:35:31;23.30;66.10
674;DHT22;319;48.764;9.174;2023-04-23T08:38:10;22.70;67.00
674;DHT22;319;48.764;9.174;2023-04-23T08:40:48;22.50;68.30
674;DHT22;319;48.764;9.174;2023-04-23T08:43:19;22.20;69.60
674;DHT22;319;48.764;9.174;2023-04-23T08:45:47;22.50;70.50
674;DHT22;319;48.764;9.174;2023-04-23T08:48:21;23.10;68.70
674;DHT22;319;48.764;9.174;2023-04-23T08:50:48;24.00;66.20
674;DHT22;319;48.764;9.174;2023-04-23T08:53:17;25.20;63.50
674;DHT22;319;48.764;9.174;2023-04-23T08:55:45;26.00;59.90
674;DHT22;319;48.764;9.174;2023-04-23T08:58:14;26.10;58.80
674;DHT22;319;48.764;9.174;2023-04-23T09:00:42;26.00;57.50
674;DHT22;319;48.764;9.174;2023-04-23T09:03:09;25.40;58.00
674;DHT22;319;48.764;9.174;2023-04-23T09:05:38;25.10;58.90
674;DHT22;319;48.764;9.174;2023-04-23T09:08:06;24.90;59.70
674;DHT22;319;48.764;9.174;2023-04-23T09:10:36;24.90;60.00
674;DHT22;319;48.764;9.174;2023-04-23T09:13:06;24.50;60.10
674;DHT22;319;48.764;9.174;2023-04-23T09:15:33;24.20;60.90
674;DHT22;319;48.764;9.174;2023-04-23T09:18:03;24.20;61.00
674;DHT22;319;48.764;9.174;2023-04-23T09:20:33;24.20;60.40
674;DHT22;319;48.764;9.174;2023-04-23T09:23:05;23.70;61.10
674;DHT22;319;48.764;9.174;2023-04-23T09:25:33;23.50;62.50
674;DHT22;319;48.764;9.174;2023-04-23T09:28:01;23.00;61.90
674;DHT22;319;48.764;9.174;2023-04-23T09:30:27;22.70;63.20
674;DHT22;319;48.764;9.174;2023-04-23T09:32:55;22.60;62.30
674;DHT22;319;48.764;9.174;2023-04-23T09:35:22;22.60;62.40
674;DHT22;319;48.764;9.174;2023-04-23T09:37:53;22.60;61.20
674;DHT22;319;48.764;9.174;2023-04-23T09:40:22;22.50;62.90
674;DHT22;319;48.764;9.174;2023-04-23T09:42:50;22.70;64.00
674;DHT22;319;48.764;9.174;2023-04-23T09:45:19;22.80;63.20
674;DHT22;319;48.764;9.174;2023-04-23T09:47:50;22.90;62.80
674;DHT22;319;48.764;9.174;2023-04-23T09:50:17;22.80;63.50
674;DHT22;319;48.764;9.174;2023-04-23T09:52:44;22.70;62.40
674;DHT22;319;48.764;9.174;2023-04-23T09:55:14;22.40;62.20
674;DHT22;319;48.764;9.174;2023-04-23T09:57:43;22.30;61.50
674;DHT22;319;48.764;9.174;2023-04-23T10:00:15;22.20;60.70
674;DHT22;319;48.764;9.174;2023-04-23T10:02:46;22.20;62.90
674;DHT22;319;48.764;9.174;2023-04-23T10:05:14;22.00;64.40
674;DHT22;319;48.764;9.174;2023-04-23T10:07:43;22.20;64.90
674;DHT22;319;48.764;9.174;2023-04-23T10:10:11;22.30;63.00
674;DHT22;319;48.764;9.174;2023-04-23T10:12:38;22.20;62.40
674;DHT22;319;48.764;9.174;2023-04-23T10:15:08;22.30;63.00
674;DHT22;319;48.764;9.174;2023-04-23T10:17:36;22.40;63.10
674;DHT22;319;48.764;9.174;2023-04-23T10:20:05;22.20;63.40
674;DHT22;319;48.764;9.174;2023-04-23T10:22:34;22.00;64.50
674;DHT22;319;48.764;9.174;2023-04-23T10:25:09;21.90;64.40
674;DHT22;319;48.764;9.174;2023-04-23T10:27:43;21.70;64.80
674;DHT22;319;48.764;9.174;2023-04-23T10:30:13;21.80;65.10
674;DHT22;319;48.764;9.174;2023-04-23T10:32:40;21.80;64.30
674;DHT22;319;48.764;9.174;2023-04-23T10:35:08;21.80;65.20
674;DHT22;319;48.764;9.174;2023-04-23T10:37:36;21.70;65.60
674;DHT22;319;48.764;9.174;2023-04-23T10:40:06;21.70;66.00
674;DHT22;319;48.764;9.174;2023-04-23T10:42:37;21.80;62.50
674;DHT22;319;48.764;9.174;2023-04-23T10:45:13;21.70;63.20
674;DHT22;319;48.764;9.174;2023-04-23T10:47:41;21.90;63.00
674;DHT22;319;48.764;9.174;2023-04-23T10:50:23;21.90;63.10
674;DHT22;319;48.764;9.174;2023-04-23T10:52:50;22.20;63.10
674;DHT22;319;48.764;9.174;2023-04-23T10:55:19;22.40;64.00
674;DHT22;319;48.764;9.174;2023-04-23T10:58:06;22.80;62.70
674;DHT22;319;48.764;9.174;2023-04-23T11:00:43;22.80;60.40
674;DHT22;319;48.764;9.174;2023-04-23T11:03:32;22.90;60.90
674;DHT22;319;48.764;9.174;2023-04-23T11:06:04;22.70;60.60
674;DHT22;319;48.764;9.174;2023-04-23T11:08:34;22.60;60.70
674;DHT22;319;48.764;9.174;2023-04-23T11:11:05;22.50;59.90
674;DHT22;319;48.764;9.174;2023-04-23T11:13:32;22.60;60.70
674;DHT22;319;48.764;9.174;2023-04-23T11:16:16;22.50;61.20
674;DHT22;319;48.764;9.174;2023-04-23T11:18:57;22.50;62.20
674;DHT22;319;48.764;9.174;2023-04-23T11:24:25;22.70;61.50
674;DHT22;319;48.764;9.174;2023-04-23T11:26:52;22.80;61.70
674;DHT22;319;48.764;9.174;2023-04-23T11:29:21;23.00;60.30
674;DHT22;319;48.764;9.174;2023-04-23T11:31:54;23.10;60.20
674;DHT22;319;48.764;9.174;2023-04-23T11:34:21;23.30;59.80
674;DHT22;319;48.764;9.174;2023-04-23T11:36:51;23.30;59.50
674;DHT22;319;48.764;9.174;2023-04-23T11:39:19;23.10;59.40
674;DHT22;319;48.764;9.174;2023-04-23T11:41:46;23.10;59.00
674;DHT22;319;48.764;9.174;2023-04-23T11:44:14;23.10;59.30
674;DHT22;319;48.764;9.174;2023-04-23T11:46:41;23.10;59.50
674;DHT22;319;48.764;9.174;2023-04-23T11:49:09;23.20;59.20
674;DHT22;319;48.764;9.174;2023-04-23T11:51:41;23.30;59.50
674;DHT22;319;48.764;9.174;2023-04-23T11:54:09;23.50;59.60
674;DHT22;319;48.764;9.174;2023-04-23T11:56:36;23.50;59.80
674;DHT22;319;48.764;9.174;2023-04-23T11:59:04;23.50;59.90
674;DHT22;319;48.764;9.174;2023-04-23T12:01:41;23.10;59.80
674;DHT22;319;48.764;9.174;2023-04-23T12:04:11;22.80;59.40
674;DHT22;319;48.764;9.174;2023-04-23T12:06:40;22.70;60.60
674;DHT22;319;48.764;9.174;2023-04-23T12:09:08;22.80;61.10
674;DHT22;319;48.764;9.174;2023-04-23T12:11:36;23.10;60.20
674;DHT22;319;48.764;9.174;2023-04-23T12:14:05;23.40;59.80
674;DHT22;319;48.764;9.174;2023-04-23T12:16:37;23.40;59.10
674;DHT22;319;48.764;9.174;2023-04-23T12:19:07;23.40;59.20
674;DHT22;319;48.764;9.174;2023-04-23T12:21:46;23.50;59.20
674;DHT22;319;48.764;9.174;2023-04-23T12:24:16;23.40;58.20
674;DHT22;319;48.764;9.174;2023-04-23T12:26:43;23.30;58.90
674;DHT22;319;48.764;9.174;2023-04-23T12:29:12;23.10;59.30
674;DHT22;319;48.764;9.174;2023-04-23T12:31:41;22.70;59.60
674;DHT22;319;48.764;9.174;2023-04-23T12:34:09;22.70;60.80
674;DHT22;319;48.764;9.174;2023-04-23T12:36:38;22.80;61.20
674;DHT22;319;48.764;9.174;2023-04-23T12:39:19;22.90;60.70
674;DHT22;319;48.764;9.174;2023-04-23T12:41:47;22.80;61.10
674;DHT22;319;48.764;9.174;2023-04-23T12:44:15;22.60;60.20
674;DHT22;319;48.764;9.174;2023-04-23T12:46:42;22.60;60.90
674;DHT22;319;48.764;9.174;2023-04-23T12:49:09;22.80;61.40
674;DHT22;319;48.764;9.174;2023-04-23T12:51:38;22.70;61.50
674;DHT22;319;48.764;9.174;2023-04-23T12:54:05;22.60;61.50
674;DHT22;319;48.764;9.174;2023-04-23T12:56:32;22.90;61.40
674;DHT22;319;48.764;9.174;2023-04-23T12:59:03;23.10;61.00
674;DHT22;319;48.764;9.174;2023-04-23T13:01:31;23.00;61.60
674;DHT22;319;48.764;9.174;2023-04-23T13:04:00;22.80;61.50
674;DHT22;319;48.764;9.174;2023-04-23T13:06:33;22.70;61.80
674;DHT22;319;48.764;9.174;2023-04-23T13:09:01;22.70;61.60
674;DHT22;319;48.764;9.174;2023-04-23T13:11:30;22.60;62.60
674;DHT22;319;48.764;9.174;2023-04-23T13:13:57;22.60;63.80
674;DHT22;319;48.764;9.174;2023-04-23T13:16:24;22.70;63.50
674;DHT22;319;48.764;9.174;2023-04-23T13:19:03;22.70;60.40
674;DHT22;319;48.764;9.174;2023-04-23T13:24:56;22.80;58.60
674;DHT22;319;48.764;9.174;2023-04-23T13:27:24;23.00;58.00
674;DHT22;319;48.764;9.174;2023-04-23T13:29:51;23.20;57.00
674;DHT22;319;48.764;9.174;2023-04-23T13:32:18;23.20;56.90
674;DHT22;319;48.764;9.174;2023-04-23T13:34:46;23.20;56.60
674;DHT22;319;48.764;9.174;2023-04-23T13:37:13;23.40;56.50
674;DHT22;319;48.764;9.174;2023-04-23T13:39:40;23.70;56.00
674;DHT22;319;48.764;9.174;2023-04-23T13:42:11;23.70;55.50
674;DHT22;319;48.764;9.174;2023-04-23T13:44:38;23.70;55.60
674;DHT22;319;48.764;9.174;2023-04-23T13:47:05;23.80;55.20
674;DHT22;319;48.764;9.174;2023-04-23T13:49:32;23.90;54.80
674;DHT22;319;48.764;9.174;2023-04-23T13:52:01;23.90;54.60
674;DHT22;319;48.764;9.174;2023-04-23T13:54:31;23.90;54.50
674;DHT22;319;48.764;9.174;2023-04-23T13:57:01;23.60;53.20
674;DHT22;319;48.764;9.174;2023-04-23T13:59:29;23.50;53.10
674;DHT22;319;48.764;9.174;2023-04-23T14:01:56;23.40;53.90
674;DHT22;319;48.764;9.174;2023-04-23T14:04:23;23.50;54.00
674;DHT22;319;48.764;9.174;2023-04-23T14:06:51;23.50;54.70
674;DHT22;319;48.764;9.174;2023-04-23T14:09:18;23.50;54.10
674;DHT22;319;48.764;9.174;2023-04-23T14:11:46;23.60;54.10
674;DHT22;319;48.764;9.174;2023-04-23T14:14:13;23.50;54.00
674;DHT22;319;48.764;9.174;2023-04-23T14:16:42;23.40;54.40
674;DHT22;319;48.764;9.174;2023-04-23T14:19:11;23.50;53.90
674;DHT22;319;48.764;9.174;2023-04-23T14:21:38;23.50;53.80
674;DHT22;319;48.764;9.174;2023-04-23T14:24:08;23.50;52.80
674;DHT22;319;48.764;9.174;2023-04-23T14:26:36;23.50;52.60
674;DHT22;319;48.764;9.174;2023-04-23T14:29:09;23.60;51.90
674;DHT22;319;48.764;9.174;2023-04-23T14:31:36;23.70;51.40
674;DHT22;319;48.764;9.174;2023-04-23T14:34:05;23.70;51.40
674;DHT22;319;48.764;9.174;2023-04-23T14:36:32;23.70;51.60
674;DHT22;319;48.764;9.174;2023-04-23T14:38:59;23.70;50.80
674;DHT22;319;48.764;9.174;2023-04-23T14:41:30;23.70;50.80
674;DHT22;319;48.764;9.174;2023-04-23T14:43:58;23.70;51.10
674;DHT22;319;48.764;9.174;2023-04-23T14:46:25;23.60;51.40
674;DHT22;319;48.764;9.174;2023-04-23T14:48:53;23.60;51.40
674;DHT22;319;48.764;9.174;2023-04-23T14:51:21;23.50;51.50
674;DHT22;319;48.764;9.174;2023-04-23T14:53:48;23.40;51.60
674;DHT22;319;48.764;9.174;2023-04-23T14:56:15;23.40;51.80
674;DHT22;319;48.764;9.174;2023-04-23T14:58:42;23.40;51.90
674;DHT22;319;48.764;9.174;2023-04-23T15:01:09;23.40;51.90
674;DHT22;319;48.764;9.174;2023-04-23T15:03:36;23.30;52.10
674;DHT22;319;48.764;9.174;2023-04-23T15:06:04;23.30;51.60
674;DHT22;319;48.764;9.174;2023-04-23T15:08:33;23.10;52.10
674;DHT22;319;48.764;9.174;2023-04-23T15:11:00;22.90;53.10
674;DHT22;319;48.764;9.174;2023-04-23T15:13:38;22.90;53.50
674;DHT22;319;48.764;9.174;2023-04-23T15:16:18;22.90;53.60
674;DHT22;319;48.764;9.174;2023-04-23T15:18:49;23.00;53.60
674;DHT22;319;48.764;9.174;2023-04-23T15:21:19;23.10;53.60
674;DHT22;319;48.764;9.174;2023-04-23T15:23:47;23.10;53.30
674;DHT22;319;48.764;9.174;2023-04-23T15:26:14;23.20;53.10
674;DHT22;319;48.764;9.174;2023-04-23T15:28:41;23.20;52.20
674;DHT22;319;48.764;9.174;2023-04-23T15:31:08;23.20;52.40
674;DHT22;319;48.764;9.174;2023-04-23T15:33:35;23.20;52.50
674;DHT22;319;48.764;9.174;2023-04-23T15:36:03;23.10;52.90
674;DHT22;319;48.764;9.174;2023-04-23T15:38:30;23.00;53.40
674;DHT22;319;48.764;9.174;2023-04-23T15:41:11;23.00;55.30
674;DHT22;319;48.764;9.174;2023-04-23T15:43:43;22.50;60.60
674;DHT22;319;48.764;9.174;2023-04-23T15:46:11;22.00;64.40
674;DHT22;319;48.764;9.174;2023-04-23T15:48:38;21.40;65.40
674;DHT22;319;48.764;9.174;2023-04-23T15:51:05;20.90;68.70
674;DHT22;319;48.764;9.174;2023-04-23T15:53:34;20.50;71.80
674;DHT22;319;48.764;9.174;2023-04-23T15:56:02;20.10;74.00
674;DHT22;319;48.764;9.174;2023-04-23T15:58:29;19.90;74.70
674;DHT22;319;48.764;9.174;2023-04-23T16:00:56;19.80;74.60
674;DHT22;319;48.764;9.174;2023-04-23T16:03:28;19.80;75.90
674;DHT22;319;48.764;9.174;2023-04-23T16:05:55;19.80;76.30
674;DHT22;319;48.764;9.174;2023-04-23T16:08:25;19.90;78.10
674;DHT22;319;48.764;9.174;2023-04-23T16:10:51;20.10;77.10
674;DHT22;319;48.764;9.174;2023-04-23T16:13:20;20.30;76.80
674;DHT22;319;48.764;9.174;2023-04-23T16:15:47;20.40;76.40
674;DHT22;319;48.764;9.174;2023-04-23T16:18:14;20.50;76.70
674;DHT22;319;48.764;9.174;2023-04-23T16:20:41;20.50;76.40
674;DHT22;319;48.764;9.174;2023-04-23T16:23:08;20.60;76.70
674;DHT22;319;48.764;9.174;2023-04-23T16:25:35;20.60;74.70
674;DHT22;319;48.764;9.174;2023-04-23T16:28:02;20.50;74.20
674;DHT22;319;48.764;9.174;2023-04-23T16:30:30;20.40;74.40
674;DHT22;319;48.764;9.174;2023-04-23T16:32:57;20.30;74.70
674;DHT22;319;48.764;9.174;2023-04-23T16:35:24;20.20;75.70
674;DHT22;319;48.764;9.174;2023-04-23T16:37:51;19.90;80.80
674;DHT22;319;48.764;9.174;2023-04-23T16:40:18;19.30;91.60
674;DHT22;319;48.764;9.174;2023-04-23T16:42:46;18.50;95.20
674;DHT22;319;48.764;9.174;2023-04-23T16:45:13;17.80;98.20
674;DHT22;319;48.764;9.174;2023-04-23T16:47:41;17.20;99.70